Terminal Aerodrome Forecast
Issued by NWS

Home | Current Version | Previous Version | Text Only | Print | Product List | Glossary On
Versions: 1 2 3 4 5 6 7 8 9 10 11 12 13 14 15 16
000
FTUS43 KJKL 191100
TAFSME
TAF
KSME 191137Z 1912/2012 00000KT 6SM BR SKC
     FM191230 VRB03KT P6SM SKC
     FM191700 VRB03KT P6SM FEW050
     FM200800 00000KT 2SM BR SKC
      AMD NOT SKED=

USA.gov is the U.S. government's official web portal to all federal, state and local government web resources and services.